Time;durP1;ratioP1;P1;durP2;ratioP2;P2;SDS_P1;SDS_P2;PMS_P1;PMS_P2;Temp;Humidity;BMP_temperature;BMP_pressure;BME280_temperature;BME280_humidity;BME280_pressure;Samples;Min_cycle;Max_cycle;Signal;HPM_P1;HPM_P2
2023/11/07 00:02:10;;;;;;;;;;;;;;;20.67;31.56;98221.59;4957754;28;1035;-78
2023/11/07 00:04:36;;;;;;;;;;;;;;;20.65;31.75;98232.56;4957915;28;1483;-77
2023/11/07 00:07:02;;;;;;;;;;;;;;;20.91;31.30;98228.81;4973735;28;1018;-78
2023/11/07 00:09:28;;;;;;;;;;;;;;;20.85;31.27;98229.75;4958108;28;1972;-78
2023/11/07 00:11:53;;;;;;;;;;;;;;;20.63;31.75;98233.00;4957834;29;1110;-78
2023/11/07 00:14:21;;;;;;;;;;;;;;;20.81;31.37;98241.91;4973933;28;1214;-78
2023/11/07 00:16:47;;;;;;;;;;;;;;;20.65;31.62;98233.34;4958032;28;943;-78
2023/11/07 00:19:13;;;;;;;;;;;;;;;20.70;31.17;98234.88;4958057;29;1095;-78
2023/11/07 00:21:38;;;;;;;;;;;;;;;20.87;31.11;98238.59;4960048;28;973;-77
2023/11/07 00:24:04;;;;;;;;;;;;;;;20.85;31.07;98241.84;4959828;28;1057;-78
2023/11/07 00:26:30;;;;;;;;;;;;;;;20.60;31.25;98236.69;4976009;28;1010;-77
2023/11/07 00:28:56;;;;;;;;;;;;;;;20.75;30.98;98240.84;4975481;28;1914;-78
2023/11/07 00:31:21;;;;;;;;;;;;;;;20.89;30.71;98242.59;4975851;28;965;-78
2023/11/07 00:33:48;;;;;;;;;;;;;;;20.68;31.08;98243.81;4959512;28;1152;-78
2023/11/07 00:36:13;;;;;;;;;;;;;;;20.55;31.52;98245.66;4959715;28;1085;-78
2023/11/07 00:38:39;;;;;;;;;;;;;;;21.33;30.98;98244.13;4959768;28;995;-77
2023/11/07 00:41:05;;;;;;;;;;;;;;;21.64;30.76;98246.66;4959776;28;1046;-78
2023/11/07 00:43:30;;;;;;;;;;;;;;;21.76;30.87;98253.66;4918154;29;944;-77
2023/11/07 00:45:56;;;;;;;;;;;;;;;21.55;31.05;98237.97;4918179;29;1247;-78
2023/11/07 00:48:21;;;;;;;;;;;;;;;21.10;31.62;98240.56;4886237;29;1971;-78
2023/11/07 00:50:47;;;;;;;;;;;;;;;20.74;31.87;98235.63;4918099;29;1063;-79
2023/11/07 00:53:13;;;;;;;;;;;;;;;20.79;32.00;98238.75;4902167;29;1414;-78
2023/11/07 00:55:38;;;;;;;;;;;;;;;20.86;31.65;98248.31;4902347;29;1152;-78
2023/11/07 00:58:04;;;;;;;;;;;;;;;20.90;31.72;98237.72;4902311;29;988;-78
2023/11/07 01:00:30;;;;;;;;;;;;;;;20.90;31.45;98243.38;4902377;29;1080;-78
2023/11/07 01:02:56;;;;;;;;;;;;;;;20.90;31.47;98249.03;4902672;29;958;-78
2023/11/07 01:05:21;;;;;;;;;;;;;;;21.16;31.19;98248.09;4902215;29;1189;-78
2023/11/07 01:07:47;;;;;;;;;;;;;;;20.70;31.86;98244.16;4901686;29;991;-78
2023/11/07 01:10:13;;;;;;;;;;;;;;;21.03;31.04;98247.16;4886005;29;1983;-78
2023/11/07 01:12:39;;;;;;;;;;;;;;;20.85;31.40;98241.84;4918002;29;994;-78
2023/11/07 01:15:05;;;;;;;;;;;;;;;20.77;31.58;98244.00;4942130;28;1324;-78
2023/11/07 01:17:30;;;;;;;;;;;;;;;20.85;31.49;98241.06;4972849;28;956;-78
2023/11/07 01:19:56;;;;;;;;;;;;;;;20.68;31.60;98245.84;4956774;29;1001;-78
2023/11/07 01:22:21;;;;;;;;;;;;;;;20.61;31.71;98243.91;4958255;28;983;-78
2023/11/07 01:24:47;;;;;;;;;;;;;;;20.35;32.09;98247.59;4956871;28;1159;-78
2023/11/07 01:27:13;;;;;;;;;;;;;;;20.96;30.90;98255.78;4956960;29;841;-78
2023/11/07 01:29:39;;;;;;;;;;;;;;;20.84;31.28;98239.47;4956552;29;1906;-78
2023/11/07 01:32:05;;;;;;;;;;;;;;;21.04;30.46;98248.75;4972797;28;1075;-78
2023/11/07 01:34:30;;;;;;;;;;;;;;;20.81;30.74;98249.59;4957620;28;1154;-78
2023/11/07 01:36:56;;;;;;;;;;;;;;;20.69;31.11;98245.41;4972963;28;1403;-78
2023/11/07 01:39:21;;;;;;;;;;;;;;;20.81;31.15;98253.22;4956579;29;915;-78
2023/11/07 01:41:47;;;;;;;;;;;;;;;20.86;30.69;98259.63;4957146;29;955;-78
2023/11/07 01:44:12;;;;;;;;;;;;;;;21.06;30.18;98257.59;4973076;28;1146;-78
2023/11/07 01:46:38;;;;;;;;;;;;;;;20.81;30.93;98253.22;4958198;29;967;-78
2023/11/07 01:49:03;;;;;;;;;;;;;;;21.08;30.09;98260.78;4956512;28;1899;-78
2023/11/07 01:51:29;;;;;;;;;;;;;;;20.91;30.33;98261.94;4957025;29;1303;-78
2023/11/07 01:53:54;;;;;;;;;;;;;;;20.78;30.75;98275.94;4956710;29;1140;-78
2023/11/07 01:56:23;;;;;;;;;;;;;;;20.73;30.46;98273.63;4956455;29;947;-78
2023/11/07 01:58:49;;;;;;;;;;;;;;;20.92;30.18;98270.00;4956354;28;1120;-78
2023/11/07 02:01:14;;;;;;;;;;;;;;;20.62;30.71;98279.44;4956694;28;1239;-78
2023/11/07 02:03:40;;;;;;;;;;;;;;;20.58;30.75;98278.72;4956421;28;1109;-78
2023/11/07 02:06:08;;;;;;;;;;;;;;;20.83;30.13;98283.94;4972898;28;1180;-78
2023/11/07 02:08:34;;;;;;;;;;;;;;;21.03;29.74;98286.75;4956345;28;1906;-78
2023/11/07 02:11:00;;;;;;;;;;;;;;;20.83;30.30;98283.09;4956809;28;1179;-78
2023/11/07 02:13:26;;;;;;;;;;;;;;;20.83;30.15;98289.59;4956525;29;1659;-78
2023/11/07 02:15:53;;;;;;;;;;;;;;;20.81;30.29;98292.81;4939329;29;1280;-78
2023/11/07 02:18:19;;;;;;;;;;;;;;;20.63;30.67;98298.03;4924256;29;1145;-78
2023/11/07 02:20:45;;;;;;;;;;;;;;;20.75;30.11;98288.91;4927141;29;1196;-78
2023/11/07 02:23:29;;;;;;;;;;;;;;;21.54;30.09;98288.13;4926859;29;1149;-78
2023/11/07 02:25:55;;;;;;;;;;;;;;;21.63;30.41;98290.38;4958690;29;1042;-79
2023/11/07 02:28:21;;;;;;;;;;;;;;;21.87;30.22;98293.09;4926691;29;1910;-78
2023/11/07 02:30:47;;;;;;;;;;;;;;;21.35;30.77;98299.47;4926975;29;1630;-79
2023/11/07 02:33:14;;;;;;;;;;;;;;;21.12;31.07;98301.13;4942583;29;1263;-79
2023/11/07 02:35:42;;;;;;;;;;;;;;;21.14;31.20;98304.34;4926970;29;1062;-78
2023/11/07 02:38:08;;;;;;;;;;;;;;;21.10;31.04;98302.81;4958566;29;998;-78
2023/11/07 02:40:33;;;;;;;;;;;;;;;20.90;31.51;98302.78;4942664;29;950;-78
2023/11/07 02:43:04;;;;;;;;;;;;;;;20.73;31.53;98297.03;4926576;29;1181;-78
2023/11/07 02:45:30;;;;;;;;;;;;;;;20.98;31.22;98301.41;4958373;29;916;-79
2023/11/07 02:47:56;;;;;;;;;;;;;;;20.93;31.39;98301.91;4958222;29;979;-78
2023/11/07 02:50:22;;;;;;;;;;;;;;;20.95;31.21;98308.75;4955001;29;1915;-78
2023/11/07 02:52:48;;;;;;;;;;;;;;;20.93;31.39;98307.56;4923383;29;1325;-78
2023/11/07 02:55:14;;;;;;;;;;;;;;;20.94;31.24;98312.00;4922992;29;1235;-79
2023/11/07 02:57:39;;;;;;;;;;;;;;;20.65;31.46;98318.16;4955299;28;1231;-78
2023/11/07 03:00:09;;;;;;;;;;;;;;;20.98;31.21;98307.06;4938873;29;1632;-78
2023/11/07 03:02:38;;;;;;;;;;;;;;;20.92;31.21;98308.78;4923096;29;1179;-78
2023/11/07 03:05:04;;;;;;;;;;;;;;;21.05;30.68;98312.59;4922932;29;1211;-78
2023/11/07 03:07:30;;;;;;;;;;;;;;;20.84;31.21;98313.00;4923148;29;1267;-78
2023/11/07 03:09:58;;;;;;;;;;;;;;;20.48;31.53;98320.09;4923008;29;1914;-78
2023/11/07 03:12:23;;;;;;;;;;;;;;;20.72;31.06;98317.25;4954690;28;1242;-78
2023/11/07 03:14:49;;;;;;;;;;;;;;;20.83;31.13;98311.38;4923171;29;975;-78
2023/11/07 03:17:15;;;;;;;;;;;;;;;21.00;30.44;98315.94;4922741;29;1136;-78
2023/11/07 03:19:40;;;;;;;;;;;;;;;20.84;30.65;98329.97;4922814;29;1140;-78
2023/11/07 03:22:06;;;;;;;;;;;;;;;21.01;30.51;98323.19;4926071;29;1385;-79
2023/11/07 03:24:32;;;;;;;;;;;;;;;21.08;30.51;98323.03;4941841;29;935;-79
2023/11/07 03:26:59;;;;;;;;;;;;;;;20.92;30.40;98325.78;4942455;29;961;-79
2023/11/07 03:29:24;;;;;;;;;;;;;;;20.78;31.02;98333.31;4958405;28;1975;-78
2023/11/07 03:31:53;;;;;;;;;;;;;;;20.90;30.69;98328.25;4958813;29;1272;-78
2023/11/07 03:34:19;;;;;;;;;;;;;;;20.48;31.16;98324.94;4957910;28;1121;-78
2023/11/07 03:36:44;;;;;;;;;;;;;;;20.53;31.26;98332.94;4958427;29;1014;-79
2023/11/07 03:39:10;;;;;;;;;;;;;;;20.37;31.25;98332.78;4958735;29;1268;-78
2023/11/07 03:41:39;;;;;;;;;;;;;;;20.71;30.96;98336.22;4942967;29;1160;-78
2023/11/07 03:44:04;;;;;;;;;;;;;;;20.53;30.91;98341.41;4974506;28;1069;-78
2023/11/07 03:46:30;;;;;;;;;;;;;;;20.72;30.48;98342.69;4958127;28;1390;-78
2023/11/07 03:48:55;;;;;;;;;;;;;;;20.88;30.41;98347.66;4959412;29;1969;-78
2023/11/07 03:51:20;;;;;;;;;;;;;;;20.94;30.05;98343.13;4974247;28;950;-78
2023/11/07 03:53:46;;;;;;;;;;;;;;;20.85;30.17;98342.88;4958648;29;959;-79
2023/11/07 03:56:11;;;;;;;;;;;;;;;20.67;30.54;98340.34;4959618;29;928;-79
2023/11/07 03:58:37;;;;;;;;;;;;;;;20.57;30.58;98347.00;4974239;28;1111;-78
2023/11/07 04:01:03;;;;;;;;;;;;;;;20.80;30.37;98347.78;4974404;28;1213;-78
2023/11/07 04:03:29;;;;;;;;;;;;;;;20.67;30.35;98352.47;4974213;28;1015;-78
2023/11/07 04:05:54;;;;;;;;;;;;;;;20.67;30.50;98349.63;4958438;29;1113;-78
2023/11/07 04:08:20;;;;;;;;;;;;;;;20.68;30.38;98351.25;4957967;29;1903;-78
2023/11/07 04:10:45;;;;;;;;;;;;;;;20.83;30.25;98362.28;4956497;29;1089;-79
2023/11/07 04:13:11;;;;;;;;;;;;;;;20.65;30.34;98356.97;4972908;28;893;-78
2023/11/07 04:15:36;;;;;;;;;;;;;;;20.46;30.48;98361.28;4972946;28;1033;-79
2023/11/07 04:18:03;;;;;;;;;;;;;;;21.33;29.88;98354.50;4940851;29;1349;-78
2023/11/07 04:20:29;;;;;;;;;;;;;;;21.78;29.56;98356.81;4956584;29;1152;-78
2023/11/07 04:22:54;;;;;;;;;;;;;;;21.89;30.21;98364.28;4956705;29;941;-79
2023/11/07 04:25:20;;;;;;;;;;;;;;;21.23;31.10;98374.50;4956733;29;946;-78
2023/11/07 04:27:48;;;;;;;;;;;;;;;20.92;31.37;98377.47;4956555;29;966;-78
2023/11/07 04:30:14;;;;;;;;;;;;;;;21.10;30.73;98377.16;4944752;28;1993;-79
2023/11/07 04:32:40;;;;;;;;;;;;;;;20.95;30.79;98373.00;4948844;28;1219;-78
2023/11/07 04:35:06;;;;;;;;;;;;;;;20.85;31.32;98376.81;4945924;28;1093;-79
2023/11/07 04:37:34;;;;;;;;;;;;;;;20.91;30.91;98380.75;4925792;29;1217;-79
2023/11/07 04:40:02;;;;;;;;;;;;;;;20.86;31.13;98372.75;4926072;29;1330;-78
2023/11/07 04:42:27;;;;;;;;;;;;;;;20.88;30.97;98373.13;4900931;29;1171;-78
2023/11/07 04:44:53;;;;;;;;;;;;;;;20.92;31.23;98371.03;4902160;29;1358;-78
2023/11/07 04:47:20;;;;;;;;;;;;;;;20.83;30.89;98374.44;4918229;29;1142;-78
2023/11/07 04:49:45;;;;;;;;;;;;;;;20.81;31.09;98374.84;4917934;29;1915;-78
2023/11/07 04:52:11;;;;;;;;;;;;;;;20.83;31.30;98382.09;4918096;29;1327;-78
2023/11/07 04:54:38;;;;;;;;;;;;;;;20.73;31.06;98387.53;4921206;29;1119;-78
2023/11/07 04:57:05;;;;;;;;;;;;;;;20.89;31.09;98389.69;4936892;29;930;-79
2023/11/07 04:59:31;;;;;;;;;;;;;;;20.95;30.82;98395.63;4917881;29;996;-78
2023/11/07 05:01:57;;;;;;;;;;;;;;;20.96;30.84;98405.72;4902380;29;1038;-79
2023/11/07 05:04:22;;;;;;;;;;;;;;;20.93;30.82;98417.88;4918079;29;774;-78
2023/11/07 05:06:48;;;;;;;;;;;;;;;20.88;30.83;98426.84;4917676;29;902;-78
2023/11/07 05:09:14;;;;;;;;;;;;;;;20.99;30.51;98427.50;4901903;29;1994;-78
2023/11/07 05:11:39;;;;;;;;;;;;;;;21.04;30.53;98424.16;4901486;29;1037;-79
2023/11/07 05:14:08;;;;;;;;;;;;;;;20.88;30.92;98429.69;4907264;29;867;-79
2023/11/07 05:16:36;;;;;;;;;;;;;;;20.91;31.09;98432.47;4939603;29;1161;-78
2023/11/07 05:19:02;;;;;;;;;;;;;;;20.72;31.15;98431.16;4939537;29;924;-79
2023/11/07 05:21:28;;;;;;;;;;;;;;;20.76;31.10;98443.22;4955566;29;728;-78
2023/11/07 05:23:53;;;;;;;;;;;;;;;20.80;31.06;98440.31;4939748;29;1059;-79
2023/11/07 05:26:19;;;;;;;;;;;;;;;20.83;30.96;98441.47;4939724;29;828;-79
2023/11/07 05:28:44;;;;;;;;;;;;;;;20.86;30.98;98457.59;4955430;29;1911;-78
2023/11/07 05:31:10;;;;;;;;;;;;;;;20.68;31.37;98464.34;4952477;28;905;-79
2023/11/07 05:33:36;;;;;;;;;;;;;;;20.72;31.25;98465.06;4935871;29;1314;-79
2023/11/07 05:36:02;;;;;;;;;;;;;;;20.72;31.25;98467.91;4936312;29;918;-79
2023/11/07 05:38:27;;;;;;;;;;;;;;;21.27;30.05;98462.97;4920600;29;782;-78
2023/11/07 05:40:53;;;;;;;;;;;;;;;21.12;30.41;98470.09;4920724;29;804;-79
2023/11/07 05:43:19;;;;;;;;;;;;;;;20.79;30.92;98467.81;4920490;29;1338;-78
2023/11/07 05:45:44;;;;;;;;;;;;;;;20.84;30.72;98488.34;4920321;29;788;-79
2023/11/07 05:48:11;;;;;;;;;;;;;;;21.11;30.27;98485.50;4904962;29;1118;-78
2023/11/07 05:50:37;;;;;;;;;;;;;;;20.92;30.82;98472.84;4904768;29;859;-79
2023/11/07 05:53:04;;;;;;;;;;;;;;;20.87;30.73;98471.31;4920874;29;1214;-78
2023/11/07 05:55:29;;;;;;;;;;;;;;;20.89;30.99;98479.38;4924838;29;827;-79
2023/11/07 05:57:55;;;;;;;;;;;;;;;20.62;31.34;98483.00;4939819;29;1136;-78
2023/11/07 06:00:20;;;;;;;;;;;;;;;20.74;31.02;98490.91;4924008;29;1040;-78
2023/11/07 06:02:46;;;;;;;;;;;;;;;20.90;30.68;98492.28;4908080;29;1292;-78
2023/11/07 06:05:12;;;;;;;;;;;;;;;20.98;30.68;98494.56;4950150;29;1000;-79
2023/11/07 06:07:38;;;;;;;;;;;;;;;20.93;30.74;98491.41;4960315;29;748;-79
2023/11/07 06:10:03;;;;;;;;;;;;;;;20.93;30.76;98485.75;4960031;29;1973;-78
2023/11/07 06:12:29;;;;;;;;;;;;;;;21.02;30.59;98491.69;4944200;29;941;-79
2023/11/07 06:14:55;;;;;;;;;;;;;;;21.17;30.54;98495.88;4960981;28;929;-78
2023/11/07 06:17:20;;;;;;;;;;;;;;;21.10;30.18;98496.00;4959819;28;1235;-76
2023/11/07 06:19:47;;;;;;;;;;;;;;;20.97;30.67;98503.50;4961169;28;913;-78
2023/11/07 06:22:13;;;;;;;;;;;;;;;20.97;30.80;98498.63;4959731;28;916;-78
2023/11/07 06:24:38;;;;;;;;;;;;;;;21.29;30.18;98514.25;4960191;29;994;-79
2023/11/07 06:27:04;;;;;;;;;;;;;;;21.02;30.47;98505.84;4959948;29;1111;-77
2023/11/07 06:29:29;;;;;;;;;;;;;;;20.81;31.14;98513.44;4926914;29;1970;-78
2023/11/07 06:31:55;;;;;;;;;;;;;;;21.18;30.36;98520.13;4959467;29;1219;-78
2023/11/07 06:34:21;;;;;;;;;;;;;;;21.26;30.34;98521.59;4958491;28;1032;-78
2023/11/07 06:36:47;;;;;;;;;;;;;;;21.27;30.13;98520.38;4965564;28;1087;-77
2023/11/07 06:39:15;;;;;;;;;;;;;;;21.39;29.94;98518.19;4978655;28;888;-77
2023/11/07 06:41:40;;;;;;;;;;;;;;;21.24;30.13;98512.75;4978655;28;1606;-77
2023/11/07 06:44:10;;;;;;;;;;;;;;;21.07;30.54;98513.84;4978066;28;985;-77
2023/11/07 06:46:35;;;;;;;;;;;;;;;20.94;30.89;98510.03;4979610;28;1571;-77
2023/11/07 06:49:01;;;;;;;;;;;;;;;20.80;30.92;98513.84;4978840;28;1906;-77
2023/11/07 06:51:27;;;;;;;;;;;;;;;20.85;30.85;98518.25;4978152;28;1477;-78
2023/11/07 06:53:53;;;;;;;;;;;;;;;21.10;30.77;98507.31;4978396;28;1398;-77
2023/11/07 06:56:18;;;;;;;;;;;;;;;20.79;31.08;98513.06;4961983;28;1593;-77
2023/11/07 06:58:45;;;;;;;;;;;;;;;20.60;31.46;98512.94;4979559;28;890;-77
2023/11/07 07:01:13;;;;;;;;;;;;;;;20.88;31.20;98511.72;4979289;28;1188;-77
2023/11/07 07:03:39;;;;;;;;;;;;;;;21.14;30.85;98513.72;4942054;28;1045;-76
2023/11/07 07:06:05;;;;;;;;;;;;;;;21.62;30.74;98509.69;4958319;29;1230;-77
2023/11/07 07:08:31;;;;;;;;;;;;;;;21.80;30.34;98510.13;4977382;28;1992;-75
2023/11/07 07:10:57;;;;;;;;;;;;;;;21.26;31.80;98513.13;4977406;28;1015;-72
2023/11/07 07:13:24;;;;;;;;;;;;;;;21.30;31.98;98504.59;4977516;28;1428;-72
2023/11/07 08:22:00;;;;;;;;;;;;;;;19.81;39.66;98536.50;5092294;27;1765;-77
2023/11/07 08:24:26;;;;;;;;;;;;;;;20.61;36.82;98532.31;5078049;28;1405;-74
2023/11/07 08:26:52;;;;;;;;;;;;;;;20.93;35.12;98525.38;5083676;28;1547;-74
2023/11/07 08:29:17;;;;;;;;;;;;;;;21.31;34.05;98523.97;5082084;28;1390;-74
2023/11/07 08:31:43;;;;;;;;;;;;;;;21.65;32.96;98528.63;5120371;28;1485;-74
2023/11/07 08:34:09;;;;;;;;;;;;;;;21.79;32.49;98531.19;5092664;28;1123;-74
2023/11/07 08:36:38;;;;;;;;;;;;;;;21.65;32.61;98531.44;5125975;28;968;-75
2023/11/07 08:39:05;;;;;;;;;;;;;;;21.56;32.59;98528.41;5125006;28;1067;-74
2023/11/07 08:41:30;;;;;;;;;;;;;;;21.72;32.29;98531.34;5126013;28;1910;-74
2023/11/07 08:43:56;;;;;;;;;;;;;;;22.18;31.29;98534.53;5125890;28;962;-74
2023/11/07 08:46:23;;;;;;;;;;;;;;;22.54;30.38;98528.91;5108759;28;1080;-72
2023/11/07 08:48:50;;;;;;;;;;;;;;;22.12;30.97;98537.06;5125749;28;982;-76
2023/11/07 08:51:16;;;;;;;;;;;;;;;22.64;29.87;98522.19;5125016;28;931;-74
2023/11/07 08:53:42;;;;;;;;;;;;;;;22.54;30.04;98526.06;5093165;28;940;-73
2023/11/07 08:56:09;;;;;;;;;;;;;;;22.34;30.00;98524.06;5093165;28;937;-73
2023/11/07 08:58:34;;;;;;;;;;;;;;;22.73;29.51;98525.22;5125570;27;1007;-74
2023/11/07 09:01:01;;;;;;;;;;;;;;;22.57;29.90;98525.19;5108621;28;1909;-73
2023/11/07 09:03:27;;;;;;;;;;;;;;;22.63;29.76;98523.41;5108665;28;919;-74
2023/11/07 09:05:52;;;;;;;;;;;;;;;22.34;29.98;98520.41;5108627;28;1163;-74
2023/11/07 09:08:18;;;;;;;;;;;;;;;22.32;29.94;98512.34;5125386;28;985;-74
2023/11/07 09:10:43;;;;;;;;;;;;;;;22.44;29.76;98521.44;5125727;28;913;-74
2023/11/07 09:13:10;;;;;;;;;;;;;;;22.54;29.78;98518.34;5092526;28;900;-73
2023/11/07 09:15:36;;;;;;;;;;;;;;;22.51;29.54;98518.44;5108230;28;1133;-74
2023/11/07 09:18:02;;;;;;;;;;;;;;;22.30;29.93;98514.03;5125040;27;1278;-76
2023/11/07 09:20:27;;;;;;;;;;;;;;;22.19;29.73;98514.25;5108015;28;1901;-75
2023/11/07 09:22:53;;;;;;;;;;;;;;;21.64;30.07;98514.91;5091372;28;948;-76
2023/11/07 09:25:19;;;;;;;;;;;;;;;21.36;30.39;98510.56;5131034;28;979;-76
2023/11/07 09:27:47;;;;;;;;;;;;;;;21.41;30.44;98515.72;5113819;28;1108;-76
2023/11/07 09:30:12;;;;;;;;;;;;;;;21.47;29.91;98508.34;5130840;28;1111;-76
2023/11/07 09:32:38;;;;;;;;;;;;;;;21.40;29.97;98503.63;5121462;28;982;-76
2023/11/07 09:35:07;;;;;;;;;;;;;;;21.25;29.88;98497.38;5083505;28;1040;-77
2023/11/07 09:37:36;;;;;;;;;;;;;;;21.31;29.70;98495.66;5101509;28;1232;-76
2023/11/07 09:40:06;;;;;;;;;;;;;;;21.36;29.71;98496.41;5084207;28;1898;-76
2023/11/07 09:42:33;;;;;;;;;;;;;;;21.38;29.29;98488.28;5100361;28;944;-76
2023/11/07 09:44:59;;;;;;;;;;;;;;;21.30;29.36;98487.63;5100260;28;1025;-78
2023/11/07 09:47:25;;;;;;;;;;;;;;;21.12;29.38;98485.06;5083203;28;1205;-75
2023/11/07 09:49:50;;;;;;;;;;;;;;;21.04;29.49;98483.59;5116507;28;1030;-75
2023/11/07 09:52:16;;;;;;;;;;;;;;;21.35;29.14;98483.47;5116694;28;1031;-75
2023/11/07 09:54:41;;;;;;;;;;;;;;;21.59;28.50;98482.22;5099801;28;1024;-75
2023/11/07 09:57:08;;;;;;;;;;;;;;;21.61;28.43;98479.78;5079890;28;957;-75
2023/11/07 09:59:37;;;;;;;;;;;;;;;21.42;28.88;98469.19;5093692;28;1817;-75
2023/11/07 10:02:03;;;;;;;;;;;;;;;21.29;28.65;98475.44;5093432;28;896;-75
2023/11/07 10:04:29;;;;;;;;;;;;;;;21.29;28.81;98469.78;5093610;28;1149;-76
2023/11/07 10:06:54;;;;;;;;;;;;;;;21.27;28.63;98469.41;5110649;28;943;-76
2023/11/07 10:09:21;;;;;;;;;;;;;;;21.41;28.36;98465.56;5077888;28;980;-76
2023/11/07 10:11:49;;;;;;;;;;;;;;;21.36;28.55;98462.44;5093268;28;928;-76
2023/11/07 10:14:20;;;;;;;;;;;;;;;21.51;28.30;98458.91;5093295;28;970;-76
2023/11/07 10:16:53;;;;;;;;;;;;;;;21.53;27.81;98467.75;5071026;28;2080;-76
2023/11/07 10:19:19;;;;;;;;;;;;;;;21.26;28.35;98461.38;5070042;28;1139;-75
2023/11/07 10:21:45;;;;;;;;;;;;;;;21.31;28.37;98461.69;5052929;28;1983;-76
2023/11/07 10:24:10;;;;;;;;;;;;;;;21.37;28.14;98453.50;5053168;28;1249;-75
2023/11/07 10:26:43;;;;;;;;;;;;;;;21.16;28.20;98453.88;5053234;28;1063;-75
2023/11/07 10:29:14;;;;;;;;;;;;;;;21.37;28.06;98452.72;5069396;28;1309;-75
2023/11/07 10:31:42;;;;;;;;;;;;;;;21.43;27.79;98457.44;5052269;28;1308;-76
2023/11/07 10:34:26;;;;;;;;;;;;;;;21.41;28.05;98456.28;5051451;28;1089;-75
2023/11/07 10:36:51;;;;;;;;;;;;;;;21.50;27.40;98462.16;5018698;28;913;-76
2023/11/07 10:39:17;;;;;;;;;;;;;;;21.45;27.44;98454.16;5035224;28;994;-75
2023/11/07 10:41:45;;;;;;;;;;;;;;;21.33;27.88;98453.56;5035002;28;1988;-76
2023/11/07 10:44:28;;;;;;;;;;;;;;;21.30;27.66;98443.13;5033791;28;1015;-76
2023/11/07 10:47:00;;;;;;;;;;;;;;;21.31;27.75;98456.03;5019671;28;961;-75
2023/11/07 10:49:26;;;;;;;;;;;;;;;21.30;27.77;98443.13;5035266;28;995;-76
2023/11/07 10:51:52;;;;;;;;;;;;;;;21.07;28.11;98440.28;5018744;28;1149;-75
2023/11/07 10:54:20;;;;;;;;;;;;;;;21.05;28.13;98442.75;5018412;28;1051;-76
2023/11/07 10:56:47;;;;;;;;;;;;;;;21.28;27.77;98439.09;5035134;28;942;-76
2023/11/07 10:59:24;;;;;;;;;;;;;;;21.25;27.79;98439.97;5018497;28;925;-75
2023/11/07 11:01:53;;;;;;;;;;;;;;;21.31;27.63;98447.56;5058068;28;1914;-75
2023/11/07 11:04:22;;;;;;;;;;;;;;;20.99;28.09;98441.63;5058044;28;1209;-76
2023/11/07 11:06:52;;;;;;;;;;;;;;;20.98;27.85;98445.66;5058260;28;1017;-76
2023/11/07 11:09:18;;;;;;;;;;;;;;;21.37;27.57;98438.56;5074252;28;939;-75
2023/11/07 11:11:45;;;;;;;;;;;;;;;21.19;27.74;98436.84;5074382;28;1037;-75
2023/11/07 11:14:10;;;;;;;;;;;;;;;21.15;28.07;98441.75;5057284;28;998;-76
2023/11/07 11:16:39;;;;;;;;;;;;;;;20.92;28.00;98439.72;5057725;28;1012;-76
2023/11/07 11:19:24;;;;;;;;;;;;;;;21.18;27.88;98423.91;5057636;28;998;-75
2023/11/07 11:21:54;;;;;;;;;;;;;;;21.10;27.87;98428.09;5057441;28;1991;-75
2023/11/07 11:24:19;;;;;;;;;;;;;;;21.13;27.55;98424.38;5057825;28;999;-76
2023/11/07 11:27:20;;;;;;;;;;;;;;;21.12;27.74;98417.13;5074387;28;1422;-76
2023/11/07 11:29:49;;;;;;;;;;;;;;;21.01;27.71;98423.00;4975512;28;959;-75
2023/11/07 11:32:27;;;;;;;;;;;;;;;21.33;27.53;98424.47;4917646;29;1044;-75
2023/11/07 11:34:58;;;;;;;;;;;;;;;21.27;27.35;98426.97;4952891;28;1088;-76
2023/11/07 11:37:25;;;;;;;;;;;;;;;21.39;27.26;98416.28;4952185;29;1034;-75
2023/11/07 11:39:50;;;;;;;;;;;;;;;21.42;27.26;98409.75;4952318;29;1986;-75
2023/11/07 11:42:16;;;;;;;;;;;;;;;21.12;27.77;98417.13;4952743;29;1243;-75
2023/11/07 11:44:41;;;;;;;;;;;;;;;21.12;27.59;98411.47;4958600;28;969;-75
2023/11/07 11:47:09;;;;;;;;;;;;;;;20.86;27.91;98409.53;4956297;29;996;-76
2023/11/07 11:49:37;;;;;;;;;;;;;;;20.75;27.95;98402.03;4956034;29;973;-75
2023/11/07 11:52:07;;;;;;;;;;;;;;;20.79;28.14;98402.75;4971527;28;1202;-76
2023/11/07 11:54:33;;;;;;;;;;;;;;;20.95;27.69;98404.91;4955339;28;981;-75
2023/11/07 11:57:01;;;;;;;;;;;;;;;21.09;27.42;98406.69;4971759;28;1003;-75
2023/11/07 11:59:30;;;;;;;;;;;;;;;21.13;27.55;98403.78;4971727;28;958;-76
2023/11/07 12:01:56;;;;;;;;;;;;;;;21.03;27.83;98397.09;4955585;29;1922;-75
2023/11/07 12:04:28;;;;;;;;;;;;;;;20.87;27.92;98402.63;5000795;28;1025;-75
2023/11/07 12:07:08;;;;;;;;;;;;;;;20.99;27.91;98410.53;5013929;28;1164;-75
2023/11/07 12:09:34;;;;;;;;;;;;;;;21.06;27.44;98405.53;5013950;28;964;-76
2023/11/07 12:12:00;;;;;;;;;;;;;;;21.05;27.68;98403.94;5030659;28;992;-75
2023/11/07 12:14:25;;;;;;;;;;;;;;;20.59;28.35;98399.06;5030576;28;1010;-75
2023/11/07 12:16:57;;;;;;;;;;;;;;;20.69;27.91;98403.75;5030478;28;1005;-75
2023/11/07 12:19:23;;;;;;;;;;;;;;;20.99;27.92;98405.66;5030158;28;963;-75
2023/11/07 12:21:55;;;;;;;;;;;;;;;21.57;27.32;98399.75;5029671;28;1977;-75
2023/11/07 12:24:21;;;;;;;;;;;;;;;21.49;28.07;98389.78;5050670;28;1043;-74
2023/11/07 12:26:47;;;;;;;;;;;;;;;21.46;28.58;98393.50;5050870;28;850;-75
2023/11/07 12:29:13;;;;;;;;;;;;;;;21.45;28.96;98394.72;5051075;28;1105;-75
2023/11/07 12:31:39;;;;;;;;;;;;;;;21.39;28.94;98399.28;5068079;28;840;-75
2023/11/07 12:34:08;;;;;;;;;;;;;;;20.63;29.83;98396.19;5051009;28;1068;-75
2023/11/07 12:36:34;;;;;;;;;;;;;;;21.07;29.07;98400.66;5051001;28;1322;-75
2023/11/07 12:39:00;;;;;;;;;;;;;;;21.11;28.44;98401.41;5093417;28;987;-74
2023/11/07 12:41:27;;;;;;;;;;;;;;;20.96;28.75;98405.72;5060093;28;2085;-75
2023/11/07 12:43:52;;;;;;;;;;;;;;;20.84;28.72;98387.34;5059947;28;1107;-75
2023/11/07 12:46:20;;;;;;;;;;;;;;;20.87;28.65;98397.78;5093327;28;706;-75
2023/11/07 12:48:46;;;;;;;;;;;;;;;20.72;29.10;98391.56;5052807;28;937;-75
2023/11/07 12:51:19;;;;;;;;;;;;;;;20.95;28.51;98393.59;4996939;28;1092;-75
2023/11/07 12:53:46;;;;;;;;;;;;;;;20.71;28.97;98384.31;4996733;28;993;-74
2023/11/07 12:56:12;;;;;;;;;;;;;;;20.96;28.25;98389.53;5013554;28;1226;-74
2023/11/07 12:58:37;;;;;;;;;;;;;;;20.89;28.63;98388.88;4996796;28;809;-75
2023/11/07 13:01:07;;;;;;;;;;;;;;;20.63;28.55;98391.31;4996678;28;1899;-75
2023/11/07 13:06:09;;;;;;;;;;;;;;;21.82;28.39;98383.03;5015966;28;1604;-74
2023/11/07 13:08:44;;;;;;;;;;;;;;;22.33;28.27;98388.41;5196592;22;3696;-75
2023/11/07 13:11:10;;;;;;;;;;;;;;;22.42;29.55;98384.94;4980942;28;1086;-74
2023/11/07 13:13:35;;;;;;;;;;;;;;;22.06;30.06;98369.53;4980760;28;732;-75
2023/11/07 13:16:01;;;;;;;;;;;;;;;21.79;30.65;98372.56;4956111;29;1642;-75
2023/11/07 13:18:27;;;;;;;;;;;;;;;21.56;30.62;98376.28;4939755;29;953;-75
2023/11/07 13:20:52;;;;;;;;;;;;;;;21.31;30.59;98379.63;4939719;29;1903;-74
2023/11/07 13:23:18;;;;;;;;;;;;;;;21.09;31.04;98375.56;4939830;29;732;-74
2023/11/07 13:29:05;;;;;;;;;;;;;;;20.89;30.97;98377.56;4939875;29;627;-75
2023/11/07 13:31:31;;;;;;;;;;;;;;;20.88;30.61;98375.94;4958679;29;1124;-75
2023/11/07 13:33:57;;;;;;;;;;;;;;;21.00;30.23;98378.97;4958729;29;762;-74
2023/11/07 13:36:24;;;;;;;;;;;;;;;20.64;30.58;98378.78;4958727;29;874;-75
2023/11/07 13:38:49;;;;;;;;;;;;;;;20.76;30.22;98366.84;4943173;29;808;-74
2023/11/07 13:41:15;;;;;;;;;;;;;;;20.71;30.22;98367.34;4958505;29;1910;-75
2023/11/07 13:43:41;;;;;;;;;;;;;;;20.77;30.34;98365.63;4942831;29;1085;-74
2023/11/07 13:46:07;;;;;;;;;;;;;;;21.11;29.37;98356.13;4950324;28;796;-74
2023/11/07 13:48:33;;;;;;;;;;;;;;;21.11;29.41;98361.78;5000604;28;877;-74
2023/11/07 13:50:59;;;;;;;;;;;;;;;21.12;29.25;98346.41;5000728;28;1023;-74
2023/11/07 13:53:25;;;;;;;;;;;;;;;20.86;29.35;98361.44;5016849;28;1243;-74
2023/11/07 13:55:51;;;;;;;;;;;;;;;20.66;29.54;98350.88;5017046;28;763;-74
2023/11/07 13:58:17;;;;;;;;;;;;;;;20.84;29.21;98359.06;5016977;28;856;-74
2023/11/07 14:00:42;;;;;;;;;;;;;;;20.87;29.20;98344.03;4958342;29;1983;-75
2023/11/07 14:03:08;;;;;;;;;;;;;;;20.69;29.38;98347.19;4943487;28;989;-75
2023/11/07 14:05:33;;;;;;;;;;;;;;;20.74;29.03;98349.53;4938942;29;815;-74
2023/11/07 14:07:59;;;;;;;;;;;;;;;20.83;29.01;98346.16;4939333;29;810;-74
2023/11/07 14:10:26;;;;;;;;;;;;;;;20.88;28.95;98342.00;4952512;29;1091;-75